Time;durP1;ratioP1;P1;durP2;ratioP2;P2;SDS_P1;SDS_P2;PMS_P1;PMS_P2;Temp;Humidity;BMP_temperature;BMP_pressure;BME280_temperature;BME280_humidity;BME280_pressure;Samples;Min_cycle;Max_cycle;Signal;HPM_P1;HPM_P2
2022/10/09 00:00:04;;;;;;;12.95;9.85;;;;;;;30.19;26.97;98718.56;5109919;28;20395;-78
2022/10/09 00:02:30;;;;;;;13.25;8.60;;;;;;;29.90;27.84;98713.13;5109373;28;20043;-78
2022/10/09 00:04:56;;;;;;;12.27;9.35;;;;;;;29.51;28.80;98716.50;5109707;28;20383;-78
2022/10/09 00:07:22;;;;;;;15.02;9.80;;;;;;;29.47;28.66;98718.69;5102360;28;20486;-78
2022/10/09 00:09:48;;;;;;;14.32;9.15;;;;;;;29.78;27.48;98717.59;5106682;28;20107;-78
2022/10/09 00:12:14;;;;;;;9.48;8.18;;;;;;;29.58;27.72;98724.75;5106847;28;20056;-78
2022/10/09 00:14:40;;;;;;;9.90;7.00;;;;;;;29.70;27.76;98709.78;5103526;28;20038;-78
2022/10/09 00:17:06;;;;;;;12.15;8.43;;;;;;;30.33;26.28;98724.53;5108132;28;20030;-78
2022/10/09 00:19:32;;;;;;;8.63;6.88;;;;;;;30.30;26.45;98718.97;5100258;28;20090;-79
2022/10/09 00:21:58;;;;;;;9.35;6.53;;;;;;;30.20;26.68;98720.16;5110980;28;20088;-78
2022/10/09 00:24:24;;;;;;;7.93;5.63;;;;;;;29.80;26.64;98723.59;5109828;28;20036;-79
2022/10/09 00:26:50;;;;;;;9.93;7.00;;;;;;;29.43;27.21;98736.56;5110752;28;20039;-78
2022/10/09 00:29:16;;;;;;;10.73;6.75;;;;;;;29.29;27.61;98736.25;5113796;28;20387;-78
2022/10/09 00:31:42;;;;;;;12.70;7.82;;;;;;;29.24;26.83;98739.66;5109410;28;20534;-79
2022/10/09 00:34:08;;;;;;;10.23;6.75;;;;;;;29.29;26.80;98734.19;5104090;28;20031;-78
2022/10/09 00:36:34;;;;;;;9.23;6.20;;;;;;;29.55;26.52;98745.47;5109328;27;20035;-78
2022/10/09 00:39:00;;;;;;;10.07;6.43;;;;;;;28.96;26.98;98744.16;5112638;27;20151;-78
2022/10/09 00:41:29;;;;;;;7.65;6.20;;;;;;;28.85;27.37;98738.03;5108453;28;20032;-78
2022/10/09 00:43:58;;;;;;;8.15;5.55;;;;;;;28.64;27.62;98741.50;5111183;28;20027;-78
2022/10/09 00:46:47;;;;;;;10.45;5.68;;;;;;;27.85;29.28;98747.72;5105634;28;20067;-78
2022/10/09 00:49:27;;;;;;;9.70;5.90;;;;;;;27.76;29.18;98746.78;5101730;28;20032;-78
2022/10/09 00:51:57;;;;;;;10.52;5.85;;;;;;;27.82;28.96;98748.59;5106233;28;20028;-78
2022/10/09 00:54:26;;;;;;;6.18;5.13;;;;;;;27.94;27.96;98747.06;5100443;28;20043;-78
2022/10/09 00:56:53;;;;;;;10.07;5.45;;;;;;;28.10;27.72;98757.59;5102871;28;20487;-78
2022/10/09 00:59:19;;;;;;;7.28;5.03;;;;;;;27.80;30.35;98758.75;5110053;28;20038;-78
2022/10/09 01:01:46;;;;;;;9.25;5.25;;;;;;;28.33;27.34;98765.81;5112885;28;20031;-78
2022/10/09 01:04:12;;;;;;;8.32;4.20;;;;;;;28.10;27.45;98763.25;5095898;28;20024;-78
2022/10/09 01:07:06;;;;;;;7.38;4.95;;;;;;;27.90;28.42;98769.78;5107400;28;20484;-78
2022/10/09 01:09:59;;;;;;;9.73;4.40;;;;;;;27.36;27.50;98763.88;5104092;28;20028;-78
2022/10/09 01:12:30;;;;;;;5.85;3.83;;;;;;;27.27;27.46;98762.88;5099961;28;20356;-78
2022/10/09 01:15:18;;;;;;;4.80;3.30;;;;;;;27.36;27.47;98765.88;5109794;28;20452;-78
2022/10/09 01:18:04;;;;;;;6.88;3.20;;;;;;;26.62;28.47;98773.22;5108904;28;20027;-78
2022/10/09 01:20:48;;;;;;;3.58;2.63;;;;;;;27.45;27.61;98768.91;5106526;28;20744;-77
2022/10/09 01:23:41;;;;;;;6.00;2.30;;;;;;;27.62;26.14;98767.69;5106675;28;20031;-78
2022/10/09 01:26:37;;;;;;;3.80;2.33;;;;;;;26.79;28.16;98771.28;5097372;28;20403;-78
2022/10/09 01:29:07;;;;;;;2.42;1.77;;;;;;;28.16;25.41;98776.38;5104369;28;20076;-78
2022/10/09 01:31:40;;;;;;;2.75;2.10;;;;;;;27.73;26.07;98773.84;5108470;28;20036;-78
2022/10/09 01:34:07;;;;;;;2.90;1.52;;;;;;;28.77;24.16;98775.44;5105033;28;20475;-78
2022/10/09 01:36:35;;;;;;;1.92;1.50;;;;;;;28.99;24.21;98776.38;5110327;28;20027;-78
2022/10/09 01:39:04;;;;;;;1.70;1.20;;;;;;;29.27;23.46;98784.00;5112004;28;20027;-78
2022/10/09 01:41:30;;;;;;;2.17;1.17;;;;;;;29.39;23.40;98788.84;5114003;28;20039;-78
2022/10/09 01:43:56;;;;;;;1.73;0.90;;;;;;;29.85;23.11;98790.97;5098644;28;20549;-78
2022/10/09 01:46:31;;;;;;;2.28;1.15;;;;;;;30.00;22.95;98796.94;5099836;28;20422;-78
2022/10/09 01:49:35;;;;;;;2.78;1.02;;;;;;;29.66;23.38;98794.84;5110523;28;20035;-78
2022/10/09 01:52:19;;;;;;;2.80;1.08;;;;;;;29.64;23.71;98802.22;5106241;28;20080;-78
2022/10/09 01:55:12;;;;;;;2.80;1.10;;;;;;;29.36;24.54;98801.88;5112983;28;20110;-78
2022/10/09 01:57:38;;;;;;;1.08;0.98;;;;;;;29.00;24.21;98794.94;5108803;28;20464;-78
2022/10/09 02:00:09;;;;;;;2.90;0.90;;;;;;;29.15;24.42;98811.00;5110593;28;20107;-79
2022/10/09 02:02:36;;;;;;;1.92;1.17;;;;;;;29.36;23.39;98806.72;5113056;28;20059;-78
2022/10/09 02:05:03;;;;;;;1.42;1.10;;;;;;;29.50;23.44;98820.41;5124963;27;20140;-78
2022/10/09 02:07:31;;;;;;;2.67;1.40;;;;;;;30.05;22.91;98821.84;5106515;27;20038;-78
2022/10/09 02:10:00;;;;;;;1.85;1.05;;;;;;;29.21;24.22;98831.06;5113671;28;20031;-78
2022/10/09 02:12:30;;;;;;;2.55;1.42;;;;;;;29.04;24.57;98829.53;5110793;28;20039;-78
2022/10/09 02:14:56;;;;;;;2.05;1.27;;;;;;;28.33;26.20;98825.94;5107444;28;20058;-78
2022/10/09 02:17:28;;;;;;;1.58;0.90;;;;;;;28.85;24.88;98830.50;5104429;28;20120;-78
2022/10/09 02:20:03;;;;;;;2.83;1.10;;;;;;;28.96;24.72;98836.66;5121093;27;20452;-78
2022/10/09 02:22:31;;;;;;;1.92;1.10;;;;;;;29.19;24.27;98836.38;5111135;28;20042;-78
2022/10/09 02:25:00;;;;;;;1.55;0.85;;;;;;;28.28;26.37;98839.78;5104678;28;20030;-78
2022/10/09 02:27:27;;;;;;;2.70;1.00;;;;;;;28.86;24.62;98847.03;5114293;28;20032;-78
2022/10/09 02:29:54;;;;;;;3.20;1.20;;;;;;;28.60;25.20;98843.34;5116726;28;20031;-78
2022/10/09 02:32:20;;;;;;;2.60;1.10;;;;;;;28.75;24.71;98846.56;5108386;28;20058;-78
2022/10/09 02:34:46;;;;;;;1.42;0.90;;;;;;;28.98;24.16;98843.47;5102936;28;20427;-78
2022/10/09 02:37:12;;;;;;;1.52;0.90;;;;;;;29.07;23.83;98848.44;5106436;28;20510;-78
2022/10/09 02:39:38;;;;;;;2.05;1.23;;;;;;;28.79;24.34;98843.63;5107578;28;20062;-78
2022/10/09 02:42:04;;;;;;;3.10;1.13;;;;;;;28.61;24.63;98856.22;5102967;28;20047;-78
2022/10/09 02:44:30;;;;;;;1.30;0.80;;;;;;;28.09;25.66;98858.44;5105379;28;20486;-78
2022/10/09 02:46:56;;;;;;;3.35;0.90;;;;;;;28.35;24.87;98857.34;5101882;28;20097;-78
2022/10/09 02:49:22;;;;;;;1.42;0.75;;;;;;;28.98;23.88;98857.59;5105853;28;20028;-78
2022/10/09 02:51:48;;;;;;;2.08;1.00;;;;;;;29.15;23.76;98859.06;5106400;28;20044;-78
2022/10/09 02:54:14;;;;;;;1.95;1.00;;;;;;;29.14;23.70;98859.53;5106156;28;20439;-78
2022/10/09 02:56:40;;;;;;;1.08;0.80;;;;;;;29.38;23.65;98866.50;5098770;28;20043;-78
2022/10/09 02:59:07;;;;;;;4.13;1.00;;;;;;;29.54;23.37;98869.22;5110208;28;20391;-78
2022/10/09 03:01:33;;;;;;;1.15;0.80;;;;;;;29.79;23.26;98876.94;5107988;27;20043;-78
2022/10/09 03:03:59;;;;;;;2.33;0.70;;;;;;;29.63;23.12;98877.03;5109347;28;20467;-78
2022/10/09 03:06:27;;;;;;;1.17;0.70;;;;;;;29.26;23.50;98878.59;5126187;27;20028;-78
2022/10/09 03:08:54;;;;;;;2.05;0.80;;;;;;;29.06;24.10;98883.59;5103123;28;20032;-77
2022/10/09 03:11:22;;;;;;;1.23;0.70;;;;;;;28.79;24.73;98880.38;5103941;28;20027;-78
2022/10/09 03:13:49;;;;;;;1.70;0.85;;;;;;;28.57;24.77;98886.59;5114821;28;20020;-78
2022/10/09 03:16:20;;;;;;;0.52;0.45;;;;;;;28.11;25.55;98891.88;5110202;27;20484;-78
2022/10/09 03:18:47;;;;;;;2.97;0.80;;;;;;;28.45;24.79;98890.13;5111043;28;20030;-78
2022/10/09 03:21:16;;;;;;;8.10;0.82;;;;;;;28.62;24.71;98893.75;5107737;28;20039;-78
2022/10/09 03:23:43;;;;;;;2.67;0.80;;;;;;;28.72;24.65;98904.78;5109126;28;20057;-78
2022/10/09 03:26:12;;;;;;;3.17;0.60;;;;;;;28.63;25.19;98901.00;5107501;28;20059;-78
2022/10/09 03:28:42;;;;;;;0.75;0.60;;;;;;;28.66;24.61;98906.53;5107784;28;20027;-78
2022/10/09 03:31:08;;;;;;;2.30;0.80;;;;;;;28.27;25.24;98905.97;5121802;27;20058;-78
2022/10/09 03:33:35;;;;;;;3.42;0.70;;;;;;;28.16;25.96;98905.47;5103212;28;20392;-78
2022/10/09 03:36:03;;;;;;;3.85;1.20;;;;;;;27.59;25.61;98914.47;5110241;28;20076;-78
2022/10/09 03:38:29;;;;;;;2.90;1.00;;;;;;;26.54;28.14;98919.03;5100203;28;20118;-78
2022/10/09 03:40:57;;;;;;;1.55;0.95;;;;;;;27.14;26.20;98911.44;5109487;28;20028;-78
2022/10/09 03:43:23;;;;;;;1.23;1.00;;;;;;;27.68;25.67;98909.03;5108226;28;20144;-78
2022/10/09 03:45:49;;;;;;;1.85;0.90;;;;;;;27.96;25.12;98911.97;5110449;28;20024;-78
2022/10/09 03:48:15;;;;;;;3.20;1.05;;;;;;;27.56;25.66;98912.53;5106245;28;20024;-78
2022/10/09 03:50:42;;;;;;;1.98;1.00;;;;;;;27.82;25.18;98911.53;5094269;28;20032;-78
2022/10/09 03:53:09;;;;;;;1.65;1.15;;;;;;;28.05;24.76;98917.81;5097398;28;20043;-78
2022/10/09 03:55:36;;;;;;;3.00;1.17;;;;;;;28.27;24.38;98920.91;5095553;28;20534;-78
2022/10/09 03:58:02;;;;;;;1.13;1.02;;;;;;;27.30;25.54;98925.56;5095179;28;20110;-78
2022/10/09 04:00:28;;;;;;;2.25;1.08;;;;;;;27.48;24.91;98922.38;5109880;28;20019;-78
2022/10/09 04:02:54;;;;;;;2.20;1.15;;;;;;;27.75;24.63;98926.56;5102809;28;20036;-78
2022/10/09 04:05:20;;;;;;;5.10;1.00;;;;;;;27.57;24.77;98926.19;5105019;28;20028;-78
2022/10/09 04:07:46;;;;;;;5.38;1.00;;;;;;;27.71;24.49;98934.34;5108827;28;20070;-78
2022/10/09 04:10:12;;;;;;;1.15;0.90;;;;;;;27.75;24.17;98935.03;5095132;28;20032;-78
2022/10/09 04:12:38;;;;;;;2.88;1.00;;;;;;;27.60;24.42;98933.00;5102950;28;20027;-78
2022/10/09 04:15:05;;;;;;;2.95;1.00;;;;;;;27.69;24.28;98947.28;5112782;28;20115;-78
2022/10/09 04:17:31;;;;;;;3.80;0.90;;;;;;;27.53;24.35;98945.25;5106070;28;20040;-78
2022/10/09 04:19:57;;;;;;;2.70;1.00;;;;;;;27.96;23.93;98945.84;5101104;28;20070;-78
2022/10/09 04:22:24;;;;;;;0.93;0.88;;;;;;;28.46;23.20;98936.16;5099275;28;20028;-78
2022/10/09 04:24:50;;;;;;;1.52;0.73;;;;;;;28.50;23.10;98946.09;5107382;28;20032;-78
2022/10/09 04:27:16;;;;;;;1.48;0.90;;;;;;;28.72;22.79;98949.19;5107674;28;20312;-78
2022/10/09 04:29:42;;;;;;;1.85;0.70;;;;;;;28.76;22.77;98949.88;5096972;28;20114;-78
2022/10/09 04:32:08;;;;;;;1.85;1.00;;;;;;;29.03;22.17;98947.53;5098386;28;20059;-78
2022/10/09 04:34:34;;;;;;;2.05;0.77;;;;;;;28.91;22.30;98948.28;5100894;28;20093;-77
2022/10/09 04:37:01;;;;;;;1.08;0.77;;;;;;;28.89;22.34;98947.13;5100646;28;20058;-77
2022/10/09 04:39:27;;;;;;;0.60;0.60;;;;;;;29.06;22.09;98946.63;5097607;28;20032;-78
2022/10/09 04:41:53;;;;;;;1.55;0.82;;;;;;;29.06;22.01;98959.97;5103984;28;20043;-78
2022/10/09 04:44:19;;;;;;;1.27;0.90;;;;;;;28.91;22.31;98959.59;5102667;28;20042;-78
2022/10/09 04:46:45;;;;;;;2.05;0.90;;;;;;;28.89;22.28;98964.09;5100367;28;20039;-78
2022/10/09 04:49:12;;;;;;;1.60;1.23;;;;;;;28.89;22.18;98976.19;5102967;28;20032;-78
2022/10/09 04:51:39;;;;;;;1.65;0.55;;;;;;;29.07;22.04;98970.03;5096051;28;20109;-79
2022/10/09 04:54:09;;;;;;;1.27;0.73;;;;;;;29.23;22.24;98970.81;5108524;27;20073;-79
2022/10/09 04:56:35;;;;;;;0.93;0.63;;;;;;;29.07;22.35;98982.16;5099677;28;20051;-80
2022/10/09 04:59:01;;;;;;;1.33;0.65;;;;;;;29.29;22.11;98979.56;5103455;28;20058;-80
2022/10/09 05:01:28;;;;;;;1.55;0.50;;;;;;;29.46;22.11;98983.06;5099367;28;20023;-80
2022/10/09 05:03:55;;;;;;;0.88;0.60;;;;;;;29.63;21.74;98985.38;5100490;28;20487;-78
2022/10/09 05:06:22;;;;;;;2.80;0.60;;;;;;;29.80;21.65;98981.22;5102332;28;20046;-79
2022/10/09 05:08:48;;;;;;;2.10;0.60;;;;;;;29.93;21.65;98995.41;5095804;28;20432;-79
2022/10/09 05:11:20;;;;;;;1.15;0.50;;;;;;;29.67;21.83;99002.25;5101894;28;20020;-80
2022/10/09 05:13:50;;;;;;;0.95;0.52;;;;;;;29.73;21.88;99000.47;5115198;28;20051;-80
2022/10/09 05:16:19;;;;;;;0.93;0.77;;;;;;;29.48;22.03;98992.69;5103028;28;20034;-79
2022/10/09 05:18:48;;;;;;;2.40;0.65;;;;;;;28.55;23.43;98996.44;5100497;28;20066;-79
2022/10/09 05:21:14;;;;;;;3.95;0.98;;;;;;;28.18;23.84;99004.66;5097316;28;20028;-79
2022/10/09 05:23:41;;;;;;;1.63;0.90;;;;;;;28.26;23.58;98992.75;5105516;28;20043;-79
2022/10/09 05:26:13;;;;;;;2.22;1.25;;;;;;;28.69;23.19;98998.13;5097592;28;20076;-80
2022/10/09 05:28:39;;;;;;;1.60;0.80;;;;;;;28.72;22.69;99000.88;5103286;28;20538;-78
2022/10/09 05:31:06;;;;;;;2.25;0.98;;;;;;;28.87;22.43;99004.09;5103108;28;20068;-79
2022/10/09 05:33:33;;;;;;;2.25;1.00;;;;;;;28.80;22.65;99012.00;5095657;28;20055;-79
2022/10/09 05:36:02;;;;;;;2.85;1.25;;;;;;;28.74;22.89;99023.03;5099276;28;20044;-79
2022/10/09 05:38:33;;;;;;;1.85;1.10;;;;;;;28.31;23.34;99016.84;5097784;28;20035;-78
2022/10/09 05:41:09;;;;;;;2.78;1.10;;;;;;;28.47;23.23;99017.63;5097350;28;20169;-79
2022/10/09 05:43:37;;;;;;;6.00;1.55;;;;;;;28.63;23.21;99028.19;5100630;28;20669;-79
2022/10/09 05:46:08;;;;;;;2.25;1.20;;;;;;;28.67;23.45;99034.53;5100894;28;20026;-79
2022/10/09 05:48:35;;;;;;;3.20;1.08;;;;;;;28.81;23.30;99044.66;5098894;28;20082;-79
2022/10/09 05:51:13;;;;;;;1.88;1.00;;;;;;;29.03;23.21;99051.38;5098733;28;20031;-79
2022/10/09 05:53:40;;;;;;;4.82;1.20;;;;;;;28.89;23.11;99061.03;5102466;28;20032;-80
2022/10/09 05:56:26;;;;;;;2.15;0.90;;;;;;;28.81;23.36;99062.44;5108774;28;20114;-80
2022/10/09 05:59:01;;;;;;;1.65;1.20;;;;;;;28.93;22.91;99063.75;5101158;28;20031;-80
2022/10/09 06:01:33;;;;;;;3.88;1.20;;;;;;;28.75;23.02;99067.81;5096159;28;20391;-79
2022/10/09 06:04:01;;;;;;;1.00;0.95;;;;;;;28.49;23.27;99071.69;5100082;28;20435;-78
2022/10/09 06:06:30;;;;;;;3.58;1.73;;;;;;;28.13;24.05;99072.94;5110727;28;20035;-79
2022/10/09 06:08:57;;;;;;;2.58;1.30;;;;;;;28.07;24.07;99078.31;5104274;28;20036;-79
2022/10/09 06:11:27;;;;;;;1.40;1.27;;;;;;;28.44;23.59;99077.84;5097008;28;20042;-79
2022/10/09 06:13:55;;;;;;;1.10;1.00;;;;;;;28.58;23.43;99082.38;5101629;28;20120;-80
2022/10/09 06:16:25;;;;;;;2.45;1.45;;;;;;;28.44;23.73;99086.34;5099409;28;20035;-79
2022/10/09 06:18:52;;;;;;;3.67;1.33;;;;;;;28.21;24.42;99083.66;5103637;28;20020;-79
2022/10/09 06:21:19;;;;;;;2.08;1.35;;;;;;;27.92;24.40;99089.09;5101802;28;20027;-79
2022/10/09 06:23:49;;;;;;;2.55;1.35;;;;;;;27.92;24.54;99086.28;5104010;28;20483;-79
2022/10/09 06:26:15;;;;;;;2.22;1.40;;;;;;;27.35;25.17;99097.09;5105132;28;20040;-80
2022/10/09 06:28:41;;;;;;;1.33;1.23;;;;;;;27.39;25.55;99100.69;5108253;28;20074;-79
2022/10/09 06:31:10;;;;;;;2.88;1.50;;;;;;;27.93;24.72;99102.00;5107526;28;20039;-79
2022/10/09 06:33:42;;;;;;;2.05;1.20;;;;;;;27.49;25.20;99094.03;5105370;28;20071;-79
2022/10/09 06:36:11;;;;;;;2.95;1.48;;;;;;;27.06;25.91;99104.50;5100374;28;20073;-79
2022/10/09 06:38:38;;;;;;;1.73;1.25;;;;;;;27.02;25.80;99098.94;5111236;27;20098;-80
2022/10/09 06:41:07;;;;;;;2.10;1.52;;;;;;;27.02;25.65;99113.03;5100976;28;20816;-79
2022/10/09 06:43:33;;;;;;;2.70;1.42;;;;;;;26.63;25.68;99110.81;5106614;28;20047;-79
2022/10/09 06:46:04;;;;;;;3.58;1.40;;;;;;;26.33;26.88;99121.34;5102699;28;20482;-81
2022/10/09 06:48:32;;;;;;;1.98;1.67;;;;;;;26.05;28.12;99125.31;5102596;28;20579;-79
2022/10/09 06:51:03;;;;;;;1.92;1.50;;;;;;;26.71;25.97;99128.41;5098455;28;20090;-80
2022/10/09 06:53:29;;;;;;;3.97;1.80;;;;;;;26.99;26.33;99121.53;5109933;28;20027;-80
2022/10/09 06:55:59;;;;;;;5.30;2.13;;;;;;;27.19;24.81;99123.16;5103622;28;20074;-82
2022/10/09 06:58:26;;;;;;;1.75;1.65;;;;;;;26.48;26.95;99119.91;5108681;28;20035;-80
2022/10/09 07:01:06;;;;;;;2.17;1.58;;;;;;;26.52;26.19;99129.09;5103799;28;20067;-81
2022/10/09 07:03:34;;;;;;;1.75;1.63;;;;;;;26.09;26.95;99126.88;5100267;28;20398;-81
2022/10/09 07:06:15;;;;;;;2.25;1.92;;;;;;;26.50;25.83;99131.56;5103155;27;20036;-81
2022/10/09 07:08:44;;;;;;;2.58;2.00;;;;;;;25.06;30.09;99140.50;5107110;28;20035;-81
2022/10/09 07:11:16;;;;;;;4.40;1.70;;;;;;;26.13;27.13;99135.31;5106690;28;20036;-81
2022/10/09 07:13:42;;;;;;;2.10;1.90;;;;;;;26.06;27.99;99135.38;5105525;28;20027;-81
2022/10/09 07:16:10;;;;;;;3.72;1.60;;;;;;;26.45;27.00;99141.28;5104965;28;20577;-81
2022/10/09 07:18:37;;;;;;;2.95;1.50;;;;;;;26.17;28.03;99149.31;5103425;28;20097;-81
2022/10/09 07:21:07;;;;;;;6.07;1.38;;;;;;;26.70;26.23;99147.31;5105405;28;20026;-81
2022/10/09 07:23:34;;;;;;;3.40;2.03;;;;;;;27.32;25.33;99145.91;5099701;28;20368;-81
2022/10/09 07:26:06;;;;;;;2.08;1.40;;;;;;;27.67;24.66;99158.56;5103443;28;20039;-81
2022/10/09 07:28:32;;;;;;;2.28;1.38;;;;;;;27.39;25.68;99148.63;5101517;28;20032;-81
2022/10/09 07:31:03;;;;;;;4.05;1.33;;;;;;;27.93;24.73;99155.63;5101512;27;20032;-81
2022/10/09 07:33:29;;;;;;;2.38;1.33;;;;;;;28.13;23.66;99154.81;5101592;28;20055;-81
2022/10/09 07:35:57;;;;;;;2.80;1.48;;;;;;;28.24;24.75;99158.25;5096533;28;20034;-81
2022/10/09 07:38:23;;;;;;;2.75;1.25;;;;;;;27.86;25.75;99163.44;5103297;28;20035;-81
2022/10/09 07:40:50;;;;;;;3.17;1.50;;;;;;;26.44;26.48;99172.69;5104120;28;20121;-81
2022/10/09 07:43:17;;;;;;;2.25;1.20;;;;;;;27.40;25.24;99167.13;5104121;28;20036;-81
2022/10/09 07:45:43;;;;;;;1.30;0.95;;;;;;;27.05;26.29;99173.38;5106810;28;20024;-81
2022/10/09 07:48:09;;;;;;;1.88;1.27;;;;;;;27.16;25.28;99171.19;5099448;28;20032;-81
2022/10/09 07:50:35;;;;;;;3.70;1.17;;;;;;;27.75;24.67;99174.94;5096776;28;20038;-81
2022/10/09 07:53:02;;;;;;;1.70;1.08;;;;;;;27.86;24.76;99171.91;5096710;27;20040;-81
2022/10/09 07:55:28;;;;;;;2.38;1.10;;;;;;;27.14;25.64;99180.03;5114863;27;20044;-81
2022/10/09 07:57:54;;;;;;;1.85;1.30;;;;;;;26.94;26.97;99175.56;5098552;28;22547;-80
2022/10/09 08:00:20;;;;;;;3.63;1.20;;;;;;;28.03;24.71;99180.03;5100608;28;20544;-81
2022/10/09 08:02:46;;;;;;;4.60;1.75;;;;;;;27.94;24.43;99181.81;5101142;28;20040;-81
2022/10/09 08:05:12;;;;;;;2.05;1.35;;;;;;;27.99;24.99;99184.97;5104530;28;20031;-81
2022/10/09 08:07:38;;;;;;;1.70;1.10;;;;;;;28.74;24.23;99181.31;5108098;28;20118;-81
2022/10/09 08:10:05;;;;;;;3.92;1.40;;;;;;;28.73;23.94;99185.38;5102110;28;20070;-81
2022/10/09 08:12:31;;;;;;;2.15;1.20;;;;;;;28.74;23.72;99178.50;5105246;28;20043;-81
2022/10/09 08:14:57;;;;;;;2.42;1.42;;;;;;;29.02;23.71;99180.66;5108933;28;20038;-80
2022/10/09 08:17:23;;;;;;;1.60;1.10;;;;;;;29.26;23.41;99187.75;5101723;28;20122;-80
2022/10/09 08:19:49;;;;;;;1.52;0.80;;;;;;;28.25;24.58;99194.50;5102987;28;20074;-82
2022/10/09 08:22:15;;;;;;;1.95;1.00;;;;;;;28.46;24.26;99191.22;5103624;28;20036;-81
2022/10/09 08:24:41;;;;;;;2.15;0.80;;;;;;;29.37;22.85;99187.47;5103899;28;20475;-81
2022/10/09 08:27:07;;;;;;;1.40;0.70;;;;;;;28.80;22.48;99190.88;5103293;28;20034;-82
2022/10/09 08:29:33;;;;;;;2.60;0.60;;;;;;;29.53;22.23;99197.94;5099914;28;20555;-80
2022/10/09 08:31:59;;;;;;;2.47;0.90;;;;;;;29.71;21.14;99201.13;5103552;28;20075;-80
2022/10/09 08:34:25;;;;;;;4.75;0.90;;;;;;;29.38;21.87;99201.16;5107813;28;20388;-80
2022/10/09 08:36:51;;;;;;;1.38;0.70;;;;;;;28.82;24.16;99196.09;5098927;28;20047;-80
2022/10/09 08:39:17;;;;;;;1.95;0.90;;;;;;;28.82;23.13;99202.56;5102693;28;20066;-80
2022/10/09 08:41:52;;;;;;;2.63;0.80;;;;;;;30.05;23.34;99210.69;5104894;28;20063;-80
2022/10/09 08:44:27;;;;;;;1.80;0.80;;;;;;;29.74;23.01;99198.19;5099801;28;20031;-80
2022/10/09 08:47:17;;;;;;;1.52;0.60;;;;;;;30.12;22.23;99198.34;5096332;28;20028;-80
2022/10/09 08:50:07;;;;;;;2.17;0.85;;;;;;;29.46;23.63;99207.44;5105776;28;20448;-79
2022/10/09 08:52:55;;;;;;;2.17;0.73;;;;;;;28.94;22.44;99207.50;5102383;27;20040;-80
2022/10/09 08:55:54;;;;;;;0.75;0.70;;;;;;;29.06;23.02;99203.97;5105332;28;20715;-80
2022/10/09 08:58:22;;;;;;;2.15;0.98;;;;;;;29.48;23.22;99207.00;5081340;28;20571;-80
2022/10/09 09:00:53;;;;;;;1.35;0.75;;;;;;;29.86;22.14;99196.69;5106339;28;20040;-80
2022/10/09 09:03:54;;;;;;;3.55;0.85;;;;;;;30.06;21.88;99205.81;5098898;28;20040;-79
2022/10/09 09:06:38;;;;;;;1.08;0.80;;;;;;;30.81;21.82;99196.66;5090021;28;20024;-80
2022/10/09 09:09:21;;;;;;;3.33;1.05;;;;;;;29.94;22.26;99204.50;5107390;28;20456;-79
2022/10/09 09:11:59;;;;;;;1.80;1.02;;;;;;;29.56;22.63;99206.38;5109789;28;20459;-79
2022/10/09 09:14:53;;;;;;;1.20;0.70;;;;;;;30.31;22.24;99202.25;5098374;28;20030;-79
2022/10/09 09:17:25;;;;;;;0.60;0.60;;;;;;;30.82;20.97;99201.09;5105083;28;20082;-79
2022/10/09 09:19:59;;;;;;;5.03;0.60;;;;;;;31.33;20.25;99201.88;5107456;28;20036;-79
2022/10/09 09:22:26;;;;;;;1.48;0.90;;;;;;;29.27;23.17;99199.84;5098547;28;20036;-79
2022/10/09 09:24:55;;;;;;;1.00;0.70;;;;;;;29.46;21.82;99201.78;5101888;28;20044;-79
2022/10/09 09:27:33;;;;;;;1.02;0.70;;;;;;;29.47;21.57;99205.41;5099881;28;20058;-79
2022/10/09 09:30:08;;;;;;;1.00;0.60;;;;;;;29.27;21.42;99194.97;5097948;28;20089;-79
2022/10/09 09:32:35;;;;;;;0.68;0.60;;;;;;;29.74;21.37;99192.53;5100968;28;20056;-79
2022/10/09 09:35:36;;;;;;;1.80;1.00;;;;;;;28.83;23.92;99201.31;5100811;28;20023;-79
2022/10/09 09:38:02;;;;;;;1.52;0.90;;;;;;;29.50;21.57;99202.47;5105939;28;20048;-79
2022/10/09 09:40:32;;;;;;;1.00;0.82;;;;;;;29.65;21.99;99197.22;5104823;28;20042;-80
2022/10/09 09:43:00;;;;;;;1.33;0.95;;;;;;;30.00;20.63;99199.09;5104722;28;20572;-80
2022/10/09 09:45:27;;;;;;;1.98;0.88;;;;;;;31.02;21.23;99196.00;5108260;28;20116;-80
2022/10/09 09:48:03;;;;;;;1.85;1.00;;;;;;;31.53;21.01;99193.13;5104742;28;20032;-81
2022/10/09 09:50:36;;;;;;;1.92;0.90;;;;;;;31.89;21.23;99205.59;5110208;28;20111;-81
2022/10/09 09:53:19;;;;;;;0.93;0.82;;;;;;;32.05;19.82;99198.97;5099854;28;20093;-81
2022/10/09 09:55:50;;;;;;;2.25;0.73;;;;;;;31.87;19.98;99204.47;5095195;28;20036;-81
2022/10/09 09:58:16;;;;;;;0.60;0.60;;;;;;;31.11;22.63;99203.84;5115420;28;20064;-81
2022/10/09 10:00:54;;;;;;;2.53;0.68;;;;;;;30.63;20.55;99202.91;5112288;28;20097;-81
2022/10/09 10:03:20;;;;;;;0.98;0.60;;;;;;;30.82;20.10;99197.47;5105516;28;20068;-82
2022/10/09 10:05:46;;;;;;;2.28;0.65;;;;;;;30.26;22.10;99197.94;5113635;28;20031;-80
2022/10/09 10:08:33;;;;;;;3.67;0.90;;;;;;;29.54;22.84;99186.22;5112747;27;20027;-82
2022/10/09 10:11:05;;;;;;;1.15;0.65;;;;;;;30.25;21.55;99189.88;5110083;28;20028;-81
2022/10/09 10:13:37;;;;;;;2.92;0.60;;;;;;;31.33;20.49;99193.38;5108550;28;20471;-81
2022/10/09 10:16:06;;;;;;;0.60;0.60;;;;;;;31.27;20.80;99186.69;5112864;28;20135;-81
2022/10/09 10:18:38;;;;;;;0.70;0.55;;;;;;;30.97;21.47;99190.13;5106743;28;20050;-82
2022/10/09 10:21:12;;;;;;;1.13;0.80;;;;;;;29.62;25.03;99186.78;5106606;28;20035;-82
2022/10/09 10:23:45;;;;;;;3.22;0.55;;;;;;;30.27;21.15;99188.19;5108020;28;20032;-82
2022/10/09 10:26:20;;;;;;;2.40;0.63;;;;;;;31.12;20.15;99179.88;5110666;28;20023;-81
2022/10/09 10:29:19;;;;;;;2.00;0.70;;;;;;;32.07;20.59;99185.06;5104598;28;20081;-82
2022/10/09 10:31:51;;;;;;;2.47;0.70;;;;;;;32.73;19.08;99184.56;5101929;28;20411;-81
2022/10/09 10:34:44;;;;;;;0.52;0.50;;;;;;;33.10;19.45;99182.66;5102941;28;20032;-81
2022/10/09 10:37:13;;;;;;;1.63;0.60;;;;;;;32.92;18.41;99188.28;5103404;28;20364;-80
2022/10/09 10:40:14;;;;;;;1.42;0.57;;;;;;;31.32;20.45;99181.22;5112270;27;20111;-80
2022/10/09 10:42:52;;;;;;;;;;;;;;;30.39;20.00;99187.44;5118473;27;20031;-80
2022/10/09 10:45:43;;;;;;;1.10;0.73;;;;;;;29.60;22.27;99190.06;5109130;28;19931;-80
2022/10/09 10:48:22;;;;;;;1.58;0.88;;;;;;;30.78;21.18;99186.25;5110033;28;20129;-80
2022/10/09 10:51:25;;;;;;;2.08;0.70;;;;;;;30.61;21.70;99181.94;5112817;28;20054;-80
2022/10/09 10:54:25;;;;;;;1.85;1.00;;;;;;;30.94;20.96;99177.66;5108479;28;20119;-81
2022/10/09 10:57:09;;;;;;;1.42;0.88;;;;;;;31.18;21.18;99187.38;5111416;28;20038;-80
2022/10/09 10:59:42;;;;;;;1.23;0.73;;;;;;;32.52;19.41;99182.56;5108657;27;20130;-80
2022/10/09 11:02:29;;;;;;;0.82;0.70;;;;;;;30.52;19.68;99182.63;5111832;28;20032;-80
2022/10/09 11:05:01;;;;;;;1.73;0.50;;;;;;;31.68;18.92;99182.84;5105337;28;20032;-81
2022/10/09 11:08:07;;;;;;;1.48;1.02;;;;;;;31.12;18.56;99182.72;5107448;28;20406;-79
2022/10/09 11:11:03;;;;;;;1.05;0.60;;;;;;;30.86;19.75;99193.28;5100247;28;20391;-80
2022/10/09 11:14:19;;;;;;;0.98;0.70;;;;;;;28.89;20.07;99188.25;5102568;28;20111;-80
2022/10/09 11:16:57;;;;;;;1.80;0.80;;;;;;;29.61;21.58;99186.03;5089805;28;20047;-80
2022/10/09 11:19:31;;;;;;;0.50;0.50;;;;;;;30.61;19.94;99179.91;5103539;28;20135;-80
2022/10/09 11:22:13;;;;;;;1.02;0.80;;;;;;;29.85;19.30;99178.13;5107464;27;20048;-80
2022/10/09 11:25:00;;;;;;;0.65;0.60;;;;;;;30.26;20.10;99169.59;5106982;28;20111;-80
2022/10/09 11:27:36;;;;;;;2.67;0.98;;;;;;;30.96;19.17;99174.34;5107846;28;20115;-80
2022/10/09 11:30:08;;;;;;;0.95;0.50;;;;;;;31.78;18.06;99168.28;5104071;28;20035;-79
2022/10/09 11:32:50;;;;;;;2.55;0.93;;;;;;;32.27;18.06;99159.16;5103305;28;20062;-79
2022/10/09 11:35:24;;;;;;;4.65;0.93;;;;;;;31.27;19.39;99155.47;5106987;28;20031;-80
2022/10/09 11:38:00;;;;;;;0.90;0.77;;;;;;;30.79;21.45;99159.47;5111882;28;20375;-79
2022/10/09 11:40:31;;;;;;;0.70;0.70;;;;;;;31.35;19.91;99160.44;5107567;28;20479;-80
2022/10/09 11:43:22;;;;;;;1.23;0.70;;;;;;;32.08;19.65;99164.75;5107858;28;20461;-81
2022/10/09 11:46:08;;;;;;;1.88;0.80;;;;;;;32.24;17.80;99160.09;5102246;28;20040;-80
2022/10/09 11:48:43;;;;;;;4.20;0.70;;;;;;;32.81;18.40;99150.13;5108449;28;20491;-80
2022/10/09 11:51:37;;;;;;;1.55;0.63;;;;;;;32.49;19.29;99159.91;5109092;28;20036;-80
2022/10/09 11:54:11;;;;;;;1.35;0.80;;;;;;;31.06;22.30;99147.69;5101503;28;20652;-80